Saint-Sauveur, Quebec

12:43 AM EST on December 26, 2014 (GMT -0500)
SAINT-JEROME MIRABEL | Change Station
CLOSE
Current Station
Personal Weather Station
Location: Saint-Colomban, QC
Elevation: 515 ft
Nearby Weather Stations

Elev 515 ft 45.77 °N, 74.09 °W | Updated 3 minutes ago

Overcast
Overcast
37.2 °F
Feels Like 33 °F
N
5.0
Wind Variable Wind from West
Gusts 13.0 mph

Today is forecast to be nearly the same temperature as yesterday.

Today
High -- | Low -- °F
--% Chance of Precip.
Yesterday
High -- | Low -- °F
Precip. -- in
7:37 AM 4:17 PM
Waxing Crescent, 22% visible
Pressure 29.88 in
Visibility 25.0 miles
Clouds Scattered Clouds 3000 ft
Overcast 6000 ft
Windchill 33 °F
Dew Point 32 °F
Humidity 82%
Rainfall 0.00 in
Snow Depth Not available.
UV 0 out of 12
Pollen Not available.
Air Quality Not available.
Flu Activity Not available.
METAR CYMX 260500Z 25012G29KT 220V290 25SM SCT030 OVC060 03/M02 A2987 RMK SC3SC5 SLP117

More Conditions Fewer Conditions

Pressure 29.88 in
Visibility 25.0 miles
Clouds Scattered Clouds 3000 ft
Overcast 6000 ft
Windchill 33 °F
Dew Point 32 °F
Humidity 82%
Rainfall 0.00 in
Snow Depth Not available.
UV 0 out of 12
Pollen Not available.
Air Quality Not available.
Flu Activity Not available.
METAR CYMX 260500Z 25012G29KT 220V290 25SM SCT030 OVC060 03/M02 A2987 RMK SC3SC5 SLP117

More Conditions Fewer Conditions

10-Day Weather Forecast

Almanac

Astronomy

Dec. 26, 2014 Rise Set
Actual Time
Civil Twilight
Nautical Twilight
Astronomical Twilight
Moon
Length of Visible Light
Length of Day
Tomorrow will be .
, % of the Moon is Illuminated

Today's Extremes

Country Highs Country Lows

Community

WunderPhotos

Upload Photos

1,780,551 photos uploaded!

WunderBlogs® & News

Nearby

Air Quality

  Air Quality AQ Index Pollutant
Not available.

Snow Depth

Station Depth Elevation

Earthquake Activity

City Distance Mag. Time & Date
Minimum magnitude displayed is 2.5.

Coastal Water Temperatures

Place Temperature

Nearby Weather Stations